createdAt,value
2018-08-09T00:00:37.039Z,0
2018-08-09T00:01:45.688Z,0
2018-08-09T00:02:54.332Z,0
2018-08-09T00:04:02.987Z,0
2018-08-09T00:05:11.629Z,0
2018-08-09T00:06:20.269Z,0
2018-08-09T00:07:28.914Z,0
2018-08-09T00:08:37.570Z,0
2018-08-09T00:09:46.488Z,0
2018-08-09T00:10:55.140Z,0
2018-08-09T00:12:03.793Z,0
2018-08-09T00:13:12.430Z,0
2018-08-09T00:14:21.086Z,0
2018-08-09T00:15:29.997Z,0
2018-08-09T00:16:38.908Z,0
2018-08-09T00:17:47.546Z,0
2018-08-09T00:18:56.470Z,0
2018-08-09T00:20:05.388Z,0
2018-08-09T00:21:14.036Z,0
2018-08-09T00:22:22.678Z,0
2018-08-09T00:23:31.328Z,0
2018-08-09T00:24:40.242Z,0
2018-08-09T00:25:48.891Z,0
2018-08-09T00:26:57.542Z,0
2018-08-09T00:28:06.180Z,0
2018-08-09T00:29:14.835Z,0
2018-08-09T00:30:23.474Z,0
2018-08-09T00:31:32.127Z,0
2018-08-09T00:32:40.767Z,0
2018-08-09T00:33:49.418Z,0
2018-08-09T00:34:58.328Z,0
2018-08-09T00:36:06.984Z,0
2018-08-09T00:37:15.891Z,0
2018-08-09T00:38:25.072Z,0
2018-08-09T00:39:34.251Z,0
2018-08-09T00:40:42.905Z,0
2018-08-09T00:41:51.550Z,0
2018-08-09T00:43:00.191Z,0
2018-08-09T00:44:08.836Z,0
2018-08-09T00:45:17.494Z,0
2018-08-09T00:46:26.136Z,0
2018-08-09T00:47:34.782Z,0
2018-08-09T00:48:43.697Z,0
2018-08-09T00:49:52.340Z,0
2018-08-09T00:51:00.993Z,0
2018-08-09T00:52:09.639Z,0
2018-08-09T00:53:18.288Z,0
2018-08-09T00:54:26.936Z,0
2018-08-09T00:55:35.893Z,0
2018-08-09T00:56:44.802Z,0
2018-08-09T00:57:53.445Z,0
2018-08-09T00:59:02.088Z,0
2018-08-09T01:00:11.012Z,0
2018-08-09T01:01:19.659Z,0
2018-08-09T01:02:28.310Z,0
2018-08-09T01:03:36.958Z,0
2018-08-09T01:04:45.601Z,0
2018-08-09T01:05:54.248Z,0
2018-08-09T01:07:02.893Z,0
2018-08-09T01:08:11.551Z,0
2018-08-09T01:09:20.197Z,0
2018-08-09T01:10:29.112Z,0
2018-08-09T01:11:37.757Z,0
2018-08-09T01:12:46.408Z,0
2018-08-09T01:13:55.052Z,0
2018-08-09T01:15:03.703Z,0
2018-08-09T01:16:12.347Z,0
2018-08-09T01:17:21.000Z,0
2018-08-09T01:18:29.645Z,0
2018-08-09T01:19:38.557Z,0
2018-08-09T01:20:47.526Z,0
2018-08-09T01:21:56.171Z,0
2018-08-09T01:23:04.822Z,0
2018-08-09T01:24:13.471Z,0
2018-08-09T01:25:22.118Z,0
2018-08-09T01:26:31.037Z,0
2018-08-09T01:27:39.684Z,0
2018-08-09T01:28:48.331Z,0
2018-08-09T01:29:56.980Z,0
2018-08-09T01:31:05.622Z,0
2018-08-09T01:32:14.272Z,0
2018-08-09T01:33:22.917Z,0
2018-08-09T01:34:31.563Z,0
2018-08-09T01:35:40.205Z,0
2018-08-09T01:36:48.854Z,0
2018-08-09T01:37:57.501Z,0
2018-08-09T01:39:06.148Z,0
2018-08-09T01:40:15.065Z,0
2018-08-09T01:41:23.705Z,0
2018-08-09T01:42:32.355Z,0
2018-08-09T01:43:41.001Z,0
2018-08-09T01:44:49.916Z,0
2018-08-09T01:45:58.558Z,0
2018-08-09T01:47:07.209Z,0
2018-08-09T01:48:15.853Z,0
2018-08-09T01:49:24.507Z,0
2018-08-09T01:50:33.146Z,0
2018-08-09T01:51:41.795Z,0
2018-08-09T01:52:50.711Z,0
2018-08-09T01:53:59.366Z,0
2018-08-09T01:55:08.013Z,0
2018-08-09T01:56:16.658Z,0
2018-08-09T01:57:25.304Z,0
2018-08-09T01:58:34.220Z,0
2018-08-09T01:59:43.140Z,0
2018-08-09T02:00:51.783Z,0
2018-08-09T02:02:00.434Z,0
2018-08-09T02:03:09.075Z,0
2018-08-09T02:04:17.991Z,0
2018-08-09T02:05:26.633Z,0
2018-08-09T02:06:35.285Z,0
2018-08-09T02:07:43.924Z,0
2018-08-09T02:08:52.849Z,0
2018-08-09T02:10:01.798Z,0
2018-08-09T02:11:10.711Z,0
2018-08-09T02:12:19.350Z,0
2018-08-09T02:13:28.000Z,0
2018-08-09T02:14:36.655Z,0
2018-08-09T02:15:45.307Z,0
2018-08-09T02:16:53.965Z,0
2018-08-09T02:18:02.600Z,0
2018-08-09T02:19:11.255Z,0
2018-08-09T02:20:19.900Z,0
2018-08-09T02:21:28.554Z,0
2018-08-09T02:22:37.191Z,0
2018-08-09T02:23:45.841Z,0
2018-08-09T02:24:54.484Z,0
2018-08-09T02:26:03.137Z,0
2018-08-09T02:27:12.302Z,0
2018-08-09T02:28:20.951Z,0
2018-08-09T02:29:29.594Z,0
2018-08-09T02:30:38.253Z,0
2018-08-09T02:31:46.908Z,0
2018-08-09T02:32:55.814Z,0
2018-08-09T02:34:04.459Z,0
2018-08-09T02:35:13.112Z,0
2018-08-09T02:36:21.770Z,0
2018-08-09T02:37:30.414Z,0
2018-08-09T02:38:39.608Z,0
2018-08-09T02:39:48.247Z,0
2018-08-09T02:40:56.907Z,0
2018-08-09T02:42:05.825Z,0
2018-08-09T02:43:14.743Z,0
2018-08-09T02:44:23.392Z,0
2018-08-09T02:45:32.298Z,0
2018-08-09T02:46:40.964Z,0
2018-08-09T02:47:49.596Z,0
2018-08-09T02:48:58.258Z,0
2018-08-09T02:50:06.905Z,0
2018-08-09T02:51:15.820Z,0
2018-08-09T02:52:24.756Z,0
2018-08-09T02:53:33.403Z,0
2018-08-09T02:54:42.055Z,0
2018-08-09T02:55:50.700Z,0
2018-08-09T02:56:59.614Z,0
2018-08-09T02:58:08.253Z,0
2018-08-09T02:59:16.908Z,0
2018-08-09T03:00:25.555Z,0
2018-08-09T03:01:34.202Z,0
2018-08-09T03:02:43.116Z,0
2018-08-09T03:03:52.049Z,0
2018-08-09T03:05:00.952Z,0
2018-08-09T03:06:09.865Z,0
2018-08-09T03:07:18.515Z,0
2018-08-09T03:08:27.697Z,0
2018-08-09T03:09:36.348Z,0
2018-08-09T03:10:45.001Z,0
2018-08-09T03:11:53.651Z,0
2018-08-09T03:13:02.288Z,0
2018-08-09T03:14:10.939Z,0
2018-08-09T03:15:19.584Z,0
2018-08-09T03:16:28.240Z,0
2018-08-09T03:17:36.910Z,0
2018-08-09T03:18:45.536Z,0
2018-08-09T03:19:54.183Z,0
2018-08-09T03:21:02.835Z,0
2018-08-09T03:22:11.472Z,0
2018-08-09T03:23:20.125Z,0
2018-08-09T03:24:28.845Z,0
2018-08-09T03:25:37.422Z,0
2018-08-09T03:26:46.065Z,0
2018-08-09T03:27:54.706Z,0
2018-08-09T03:29:03.351Z,0
2018-08-09T03:30:11.994Z,0
2018-08-09T03:31:20.657Z,4
2018-08-09T03:32:29.303Z,4
2018-08-09T03:33:37.954Z,0
2018-08-09T03:34:46.595Z,4
2018-08-09T03:35:55.249Z,4
2018-08-09T03:37:04.160Z,4
2018-08-09T03:38:12.811Z,4
2018-08-09T03:39:21.448Z,8
2018-08-09T03:40:30.361Z,8
2018-08-09T03:41:39.048Z,8
2018-08-09T03:42:47.658Z,12
2018-08-09T03:43:56.300Z,12
2018-08-09T03:45:04.958Z,20
2018-08-09T03:46:13.603Z,16
2018-08-09T03:47:22.514Z,24
2018-08-09T03:48:31.164Z,28
2018-08-09T03:49:39.807Z,32
2018-08-09T03:50:48.456Z,36
2018-08-09T03:51:57.366Z,40
2018-08-09T03:53:06.017Z,44
2018-08-09T03:54:14.657Z,48
2018-08-09T03:55:23.567Z,56
2018-08-09T03:56:32.212Z,64
2018-08-09T03:57:40.865Z,68
2018-08-09T03:58:49.508Z,80
2018-08-09T03:59:58.156Z,84
2018-08-09T04:01:07.061Z,92
2018-08-09T04:02:15.716Z,100
2018-08-09T04:03:24.623Z,112
2018-08-09T04:04:33.271Z,124
2018-08-09T04:05:41.912Z,132
2018-08-09T04:06:50.556Z,140
2018-08-09T04:07:59.206Z,156
2018-08-09T04:09:07.853Z,172
2018-08-09T04:10:16.500Z,184
2018-08-09T04:11:25.143Z,192
2018-08-09T04:12:34.055Z,212
2018-08-09T04:13:42.967Z,240
2018-08-09T04:14:51.612Z,268
2018-08-09T04:16:00.255Z,288
2018-08-09T04:17:08.905Z,308
2018-08-09T04:18:17.549Z,320
2018-08-09T04:19:26.197Z,332
2018-08-09T04:20:34.842Z,348
2018-08-09T04:21:43.494Z,368
2018-08-09T04:22:52.143Z,396
2018-08-09T04:24:00.789Z,428
2018-08-09T04:25:09.440Z,464
2018-08-09T04:26:18.083Z,500
2018-08-09T04:27:26.730Z,524
2018-08-09T04:28:35.377Z,548
2018-08-09T04:29:44.027Z,552
2018-08-09T04:30:52.665Z,516
2018-08-09T04:32:01.568Z,492
2018-08-09T04:33:10.214Z,492
2018-08-09T04:34:18.863Z,488
2018-08-09T04:35:27.507Z,492
2018-08-09T04:36:36.420Z,500
2018-08-09T04:37:45.066Z,512
2018-08-09T04:38:53.712Z,540
2018-08-09T04:40:02.354Z,592
2018-08-09T04:41:11.001Z,668
2018-08-09T04:42:19.650Z,748
2018-08-09T04:43:28.299Z,824
2018-08-09T04:44:36.952Z,884
2018-08-09T04:45:45.864Z,944
2018-08-09T04:46:54.508Z,972
2018-08-09T04:48:03.162Z,980
2018-08-09T04:49:11.843Z,1000
2018-08-09T04:50:20.454Z,1052
2018-08-09T04:51:29.089Z,1116
2018-08-09T04:52:37.745Z,1180
2018-08-09T04:53:46.380Z,1216
2018-08-09T04:54:55.032Z,1280
2018-08-09T04:56:03.938Z,1348
2018-08-09T04:57:12.593Z,1424
2018-08-09T04:58:21.251Z,1588
2018-08-09T04:59:29.881Z,1820
2018-08-09T05:00:38.524Z,1888
2018-08-09T05:01:47.167Z,1752
2018-08-09T05:02:55.822Z,1472
2018-08-09T05:04:04.465Z,1176
2018-08-09T05:05:13.116Z,912
2018-08-09T05:06:22.023Z,772
2018-08-09T05:07:30.680Z,720
2018-08-09T05:08:39.321Z,728
2018-08-09T05:09:47.973Z,736
2018-08-09T05:10:56.610Z,748
2018-08-09T05:12:05.265Z,756
2018-08-09T05:13:14.171Z,736
2018-08-09T05:14:22.823Z,692
2018-08-09T05:15:31.460Z,636
2018-08-09T05:16:40.113Z,620
2018-08-09T05:17:48.765Z,676
2018-08-09T05:18:57.416Z,780
2018-08-09T05:20:06.327Z,916
2018-08-09T05:21:15.226Z,996
2018-08-09T05:22:23.878Z,1000
2018-08-09T05:23:32.521Z,980
2018-08-09T05:24:41.442Z,976
2018-08-09T05:25:50.079Z,1004
2018-08-09T05:26:58.729Z,1044
2018-08-09T05:28:07.373Z,1016
2018-08-09T05:29:16.303Z,1016
2018-08-09T05:30:25.203Z,1048
2018-08-09T05:31:33.853Z,1056
2018-08-09T05:32:42.495Z,1140
2018-08-09T05:33:51.152Z,1140
2018-08-09T05:34:59.795Z,1072
2018-08-09T05:36:08.440Z,1028
2018-08-09T05:37:17.081Z,948
2018-08-09T05:38:25.728Z,868
2018-08-09T05:39:34.382Z,860
2018-08-09T05:40:43.026Z,900
2018-08-09T05:41:51.676Z,916
2018-08-09T05:43:00.309Z,872
2018-08-09T05:44:08.967Z,848
2018-08-09T05:45:17.659Z,840
2018-08-09T05:46:26.260Z,812
2018-08-09T05:47:34.902Z,796
2018-08-09T05:48:43.553Z,828
2018-08-09T05:49:52.200Z,876
2018-08-09T05:51:00.849Z,1008
2018-08-09T05:52:09.499Z,1132
2018-08-09T05:53:18.523Z,1272
2018-08-09T05:54:27.510Z,1428
2018-08-09T05:55:36.162Z,1584
2018-08-09T05:56:45.076Z,1624
2018-08-09T05:57:53.718Z,1492
2018-08-09T05:59:02.367Z,1508
2018-08-09T06:00:11.014Z,1620
2018-08-09T06:01:19.665Z,1552
2018-08-09T06:02:28.305Z,1400
2018-08-09T06:03:36.953Z,1368
2018-08-09T06:04:45.600Z,1352
2018-08-09T06:05:54.599Z,1240
2018-08-09T06:07:03.502Z,1224
2018-08-09T06:08:12.414Z,1396
2018-08-09T06:09:21.321Z,1640
2018-08-09T06:10:29.975Z,1800
2018-08-09T06:11:38.618Z,1772
2018-08-09T06:12:47.265Z,1736
2018-08-09T06:13:56.180Z,1692
2018-08-09T06:15:04.831Z,1524
2018-08-09T06:16:13.481Z,1332
2018-08-09T06:17:22.131Z,1108
2018-08-09T06:18:31.045Z,952
2018-08-09T06:19:39.683Z,968
2018-08-09T06:20:48.604Z,948
2018-08-09T06:21:57.255Z,800
2018-08-09T06:23:05.904Z,692
2018-08-09T06:24:14.544Z,696
2018-08-09T06:25:23.197Z,668
2018-08-09T06:26:31.896Z,628
2018-08-09T06:27:40.499Z,664
2018-08-09T06:28:49.501Z,784
2018-08-09T06:29:58.142Z,924
2018-08-09T06:31:06.814Z,1088
2018-08-09T06:32:15.706Z,1180
2018-08-09T06:33:24.363Z,1272
2018-08-09T06:34:33.001Z,1416
2018-08-09T06:35:41.649Z,1592
2018-08-09T06:36:50.296Z,1800
2018-08-09T06:37:58.949Z,1968
2018-08-09T06:39:07.592Z,2084
2018-08-09T06:40:16.240Z,2100
2018-08-09T06:41:24.886Z,2036
2018-08-09T06:42:33.529Z,1960
2018-08-09T06:43:42.180Z,2000
2018-08-09T06:44:51.095Z,2148
2018-08-09T06:45:59.746Z,2508
2018-08-09T06:47:08.389Z,3280
2018-08-09T06:48:17.304Z,3520
2018-08-09T06:49:25.953Z,3008
2018-08-09T06:50:34.608Z,2700
2018-08-09T06:51:43.253Z,2540
2018-08-09T06:52:52.159Z,2684
2018-08-09T06:54:00.806Z,2780
2018-08-09T06:55:09.458Z,2324
2018-08-09T06:56:18.122Z,1712
2018-08-09T06:57:26.757Z,1232
2018-08-09T06:58:35.407Z,1044
2018-08-09T06:59:44.055Z,1144
2018-08-09T07:00:52.705Z,1280
2018-08-09T07:02:01.346Z,1236
2018-08-09T07:03:09.996Z,1188
2018-08-09T07:04:18.642Z,1180
2018-08-09T07:05:27.295Z,1200
2018-08-09T07:06:35.939Z,1232
2018-08-09T07:07:44.589Z,1128
2018-08-09T07:08:53.240Z,1100
2018-08-09T07:10:01.879Z,1244
2018-08-09T07:11:10.532Z,1416
2018-08-09T07:12:19.178Z,1584
2018-08-09T07:13:28.090Z,1588
2018-08-09T07:14:36.991Z,1476
2018-08-09T07:15:45.646Z,1492
2018-08-09T07:16:54.293Z,1808
2018-08-09T07:18:02.941Z,2356
2018-08-09T07:19:11.584Z,2744
2018-08-09T07:20:20.265Z,3072
2018-08-09T07:21:29.227Z,3036
2018-08-09T07:22:37.882Z,2476
2018-08-09T07:23:46.521Z,1936
2018-08-09T07:24:55.172Z,1776
2018-08-09T07:26:03.822Z,1836
2018-08-09T07:27:12.472Z,1860
2018-08-09T07:28:21.121Z,1880
2018-08-09T07:29:29.764Z,1904
2018-08-09T07:30:38.411Z,2084
2018-08-09T07:31:47.058Z,2344
2018-08-09T07:32:55.708Z,2456
2018-08-09T07:34:04.347Z,2156
2018-08-09T07:35:12.993Z,1744
2018-08-09T07:36:21.639Z,1560
2018-08-09T07:37:30.298Z,1664
2018-08-09T07:38:38.935Z,1856
2018-08-09T07:39:47.951Z,2112
2018-08-09T07:40:56.564Z,2356
2018-08-09T07:42:05.223Z,2864
2018-08-09T07:43:13.869Z,3132
2018-08-09T07:44:22.515Z,3108
2018-08-09T07:45:31.160Z,3248
2018-08-09T07:46:40.058Z,3508
2018-08-09T07:47:48.716Z,3956
2018-08-09T07:48:57.360Z,4824
2018-08-09T07:50:06.013Z,5548
2018-08-09T07:51:14.652Z,6344
2018-08-09T07:52:23.312Z,7044
2018-08-09T07:53:31.956Z,7188
2018-08-09T07:54:40.608Z,6732
2018-08-09T07:55:49.250Z,6572
2018-08-09T07:56:57.925Z,6760
2018-08-09T07:58:06.554Z,6240
2018-08-09T07:59:15.481Z,5804
2018-08-09T08:00:24.131Z,6524
2018-08-09T08:01:32.782Z,6680
2018-08-09T08:02:41.439Z,5920
2018-08-09T08:03:50.090Z,5144
2018-08-09T08:04:58.741Z,4764
2018-08-09T08:06:07.435Z,4200
2018-08-09T08:07:16.037Z,3908
2018-08-09T08:08:24.688Z,3824
2018-08-09T08:09:33.343Z,3652
2018-08-09T08:10:42.257Z,3444
2018-08-09T08:11:50.908Z,3348
2018-08-09T08:12:59.812Z,3408
2018-08-09T08:14:08.473Z,3400
2018-08-09T08:15:17.114Z,3176
2018-08-09T08:16:25.765Z,2848
2018-08-09T08:17:34.414Z,2716
2018-08-09T08:18:43.341Z,2708
2018-08-09T08:19:51.991Z,2644
2018-08-09T08:21:00.634Z,2440
2018-08-09T08:22:09.284Z,2352
2018-08-09T08:23:18.198Z,2312
2018-08-09T08:24:26.858Z,2384
2018-08-09T08:25:35.502Z,2448
2018-08-09T08:26:44.204Z,2472
2018-08-09T08:27:53.066Z,2488
2018-08-09T08:29:01.723Z,2568
2018-08-09T08:30:10.366Z,2888
2018-08-09T08:31:19.020Z,3472
2018-08-09T08:32:27.659Z,3988
2018-08-09T08:33:36.318Z,4436
2018-08-09T08:34:44.965Z,4852
2018-08-09T08:35:53.614Z,5260
2018-08-09T08:37:02.265Z,5468
2018-08-09T08:38:10.915Z,5924
2018-08-09T08:39:19.833Z,6164
2018-08-09T08:40:28.485Z,6384
2018-08-09T08:41:37.221Z,6500
2018-08-09T08:42:46.228Z,6472
2018-08-09T08:43:54.878Z,7056
2018-08-09T08:45:03.529Z,7504
2018-08-09T08:46:12.183Z,7660
2018-08-09T08:47:20.864Z,7144
2018-08-09T08:48:29.483Z,6688
2018-08-09T08:49:38.132Z,6256
2018-08-09T08:50:46.785Z,6360
2018-08-09T08:51:55.429Z,5844
2018-08-09T08:53:04.090Z,6056
2018-08-09T08:54:12.732Z,6300
2018-08-09T08:55:21.788Z,6468
2018-08-09T08:56:30.299Z,5468
2018-08-09T08:57:39.215Z,5268
2018-08-09T08:58:47.864Z,4932
2018-08-09T08:59:56.821Z,4868
2018-08-09T09:01:05.528Z,4540
2018-08-09T09:02:14.394Z,4572
2018-08-09T09:03:23.344Z,4676
2018-08-09T09:04:32.471Z,4808
2018-08-09T09:05:41.131Z,4856
2018-08-09T09:06:49.775Z,4720
2018-08-09T09:07:58.427Z,4676
2018-08-09T09:09:07.139Z,4660
2018-08-09T09:10:15.833Z,4524
2018-08-09T09:11:24.479Z,4284
2018-08-09T09:12:33.137Z,4312
2018-08-09T09:13:42.132Z,4928
2018-08-09T09:14:50.767Z,5028
2018-08-09T09:15:59.683Z,5088
2018-08-09T09:17:08.341Z,5340
2018-08-09T09:18:16.994Z,5208
2018-08-09T09:19:25.644Z,4776
2018-08-09T09:20:34.295Z,4588
2018-08-09T09:21:43.216Z,4140
2018-08-09T09:22:51.872Z,4032
2018-08-09T09:24:00.517Z,3976
2018-08-09T09:25:09.168Z,4372
2018-08-09T09:26:17.820Z,4160
2018-08-09T09:27:26.481Z,3688
2018-08-09T09:28:36.609Z,3256
2018-08-09T09:29:45.577Z,3428
2018-08-09T09:30:54.227Z,3704
2018-08-09T09:32:02.882Z,3736
2018-08-09T09:33:11.926Z,3688
2018-08-09T09:34:20.845Z,3756
2018-08-09T09:35:29.497Z,3872
2018-08-09T09:36:38.145Z,4124
2018-08-09T09:37:46.803Z,5288
2018-08-09T09:38:55.453Z,4824
2018-08-09T09:40:04.111Z,4912
2018-08-09T09:41:12.754Z,5256
2018-08-09T09:42:21.419Z,5420
2018-08-09T09:43:30.065Z,5344
2018-08-09T09:44:38.727Z,5264
2018-08-09T09:45:47.641Z,5176
2018-08-09T09:46:56.301Z,4960
2018-08-09T09:48:05.211Z,4576
2018-08-09T09:49:13.863Z,4756
2018-08-09T09:50:22.517Z,6036
2018-08-09T09:51:31.162Z,6832
2018-08-09T09:52:40.347Z,7768
2018-08-09T09:53:48.997Z,7952
2018-08-09T09:54:58.012Z,7200
2018-08-09T09:56:06.705Z,6944
2018-08-09T09:57:15.270Z,7096
2018-08-09T09:58:23.925Z,7240
2018-08-09T09:59:32.582Z,7460
2018-08-09T10:00:41.225Z,6820
2018-08-09T10:01:49.892Z,6428
2018-08-09T10:02:58.931Z,6068
2018-08-09T10:04:07.593Z,5872
2018-08-09T10:05:16.235Z,5916
2018-08-09T10:06:24.890Z,5972
2018-08-09T10:07:33.541Z,5976
2018-08-09T10:08:42.202Z,6132
2018-08-09T10:09:51.121Z,6456
2018-08-09T10:10:59.770Z,6816
2018-08-09T10:12:08.692Z,7352
2018-08-09T10:13:17.344Z,7464
2018-08-09T10:14:26.006Z,7204
2018-08-09T10:15:34.654Z,6980
2018-08-09T10:16:43.310Z,6880
2018-08-09T10:17:51.952Z,6888
2018-08-09T10:19:00.613Z,6636
2018-08-09T10:20:09.262Z,6280
2018-08-09T10:21:18.184Z,6876
2018-08-09T10:22:26.827Z,7388
2018-08-09T10:23:35.753Z,7380
2018-08-09T10:24:44.404Z,7376
2018-08-09T10:25:53.059Z,6984
2018-08-09T10:27:01.703Z,6260
2018-08-09T10:28:10.359Z,5132
2018-08-09T10:29:19.026Z,4516
2018-08-09T10:30:27.685Z,4192
2018-08-09T10:31:36.336Z,4044
2018-08-09T10:32:44.982Z,3916
2018-08-09T10:33:53.635Z,3744
2018-08-09T10:35:02.296Z,3804
2018-08-09T10:36:10.937Z,3796
2018-08-09T10:37:19.599Z,3768
2018-08-09T10:38:28.247Z,3664
2018-08-09T10:39:36.906Z,3428
2018-08-09T10:40:45.549Z,4052
2018-08-09T10:41:54.214Z,4112
2018-08-09T10:43:02.869Z,3864
2018-08-09T10:44:11.525Z,3784
2018-08-09T10:45:20.169Z,3708
2018-08-09T10:46:28.823Z,3696
2018-08-09T10:47:37.755Z,3680
2018-08-09T10:48:46.411Z,3664
2018-08-09T10:49:55.066Z,3636
2018-08-09T10:51:03.709Z,3636
2018-08-09T10:52:12.365Z,3616
2018-08-09T10:53:21.016Z,3672
2018-08-09T10:54:29.687Z,3704
2018-08-09T10:55:38.378Z,3740
2018-08-09T10:56:47.317Z,3784
2018-08-09T10:57:55.968Z,3740
2018-08-09T10:59:04.632Z,3828
2018-08-09T11:00:13.275Z,3908
2018-08-09T11:01:21.934Z,4136
2018-08-09T11:02:30.585Z,3672
2018-08-09T11:03:39.511Z,3764
2018-08-09T11:04:48.161Z,3056
2018-08-09T11:05:56.810Z,3212
2018-08-09T11:07:05.725Z,3860
2018-08-09T11:08:14.378Z,4432
2018-08-09T11:09:23.302Z,4796
2018-08-09T11:10:32.209Z,5212
2018-08-09T11:11:40.870Z,5620
2018-08-09T11:12:50.302Z,5868
2018-08-09T11:13:59.228Z,6140
2018-08-09T11:15:07.899Z,6512
2018-08-09T11:16:16.811Z,7068
2018-08-09T11:17:25.454Z,7296
2018-08-09T11:18:34.386Z,7240
2018-08-09T11:19:43.298Z,6872
2018-08-09T11:20:51.955Z,6640
2018-08-09T11:22:00.596Z,6520
2018-08-09T11:23:09.253Z,6956
2018-08-09T11:24:17.912Z,7040
2018-08-09T11:25:26.569Z,8060
2018-08-09T11:26:35.229Z,8032
2018-08-09T11:27:44.133Z,7920
2018-08-09T11:28:52.792Z,7148
2018-08-09T11:30:01.442Z,7140
2018-08-09T11:31:10.104Z,6644
2018-08-09T11:32:18.755Z,6132
2018-08-09T11:33:27.413Z,6944
2018-08-09T11:34:36.064Z,6480
2018-08-09T11:35:44.724Z,5972
2018-08-09T11:36:53.380Z,5548
2018-08-09T11:38:02.039Z,5092
2018-08-09T11:39:10.692Z,4576
2018-08-09T11:40:19.350Z,4288
2018-08-09T11:41:28.000Z,4036
2018-08-09T11:42:36.650Z,3816
2018-08-09T11:43:45.562Z,3888
2018-08-09T11:44:54.217Z,3888
2018-08-09T11:46:02.893Z,3888
2018-08-09T11:47:11.548Z,3916
2018-08-09T11:48:20.202Z,3888
2018-08-09T11:49:28.855Z,3888
2018-08-09T11:50:37.826Z,3856
2018-08-09T11:51:46.511Z,3800
2018-08-09T11:52:55.454Z,3736
2018-08-09T11:54:04.367Z,3724
2018-08-09T11:55:13.026Z,3708
2018-08-09T11:56:21.716Z,3728
2018-08-09T11:57:30.606Z,3732
2018-08-09T11:58:39.298Z,3776
2018-08-09T11:59:48.479Z,3776
2018-08-09T12:00:57.130Z,3824
2018-08-09T12:02:05.788Z,3828
2018-08-09T12:03:14.449Z,3844
2018-08-09T12:04:23.100Z,3776
2018-08-09T12:05:31.748Z,3784
2018-08-09T12:06:40.403Z,3724
2018-08-09T12:07:49.061Z,3596
2018-08-09T12:08:57.709Z,3716
2018-08-09T12:10:06.365Z,3804
2018-08-09T12:11:15.018Z,3932
2018-08-09T12:12:23.937Z,3900
2018-08-09T12:13:32.704Z,3860
2018-08-09T12:14:41.244Z,3884
2018-08-09T12:15:50.424Z,3900
2018-08-09T12:16:59.084Z,4028
2018-08-09T12:18:07.757Z,4092
2018-08-09T12:19:16.390Z,4012
2018-08-09T12:20:25.043Z,3924
2018-08-09T12:21:33.695Z,3824
2018-08-09T12:22:42.631Z,3704
2018-08-09T12:23:51.282Z,3680
2018-08-09T12:24:59.935Z,3268
2018-08-09T12:26:08.584Z,3260
2018-08-09T12:27:17.244Z,3312
2018-08-09T12:28:25.900Z,3336
2018-08-09T12:29:34.554Z,3480
2018-08-09T12:30:43.212Z,3588
2018-08-09T12:31:51.862Z,3920
2018-08-09T12:33:00.517Z,4444
2018-08-09T12:34:09.433Z,4860
2018-08-09T12:35:18.098Z,5244
2018-08-09T12:36:26.808Z,5616
2018-08-09T12:37:35.398Z,5672
2018-08-09T12:38:44.051Z,5676
2018-08-09T12:39:52.704Z,5484
2018-08-09T12:41:01.374Z,5380
2018-08-09T12:42:10.286Z,5292
2018-08-09T12:43:18.948Z,5256
2018-08-09T12:44:27.593Z,5200
2018-08-09T12:45:36.299Z,5080
2018-08-09T12:46:45.257Z,4908
2018-08-09T12:47:53.916Z,4836
2018-08-09T12:49:02.562Z,4856
2018-08-09T12:50:11.230Z,4816
2018-08-09T12:51:19.883Z,4652
2018-08-09T12:52:28.541Z,4652
2018-08-09T12:53:37.186Z,4784
2018-08-09T12:54:45.842Z,4980
2018-08-09T12:55:54.502Z,5184
2018-08-09T12:57:03.425Z,5316
2018-08-09T12:58:12.087Z,5556
2018-08-09T12:59:21.269Z,5776
2018-08-09T13:00:29.929Z,5768
2018-08-09T13:01:38.577Z,5784
2018-08-09T13:02:47.244Z,5788
2018-08-09T13:03:55.892Z,5748
2018-08-09T13:05:04.552Z,5728
2018-08-09T13:06:13.202Z,5696
2018-08-09T13:07:21.863Z,5636
2018-08-09T13:08:30.509Z,5516
2018-08-09T13:09:39.431Z,5432
2018-08-09T13:10:48.092Z,5296
2018-08-09T13:11:57.017Z,5264
2018-08-09T13:13:05.670Z,5128
2018-08-09T13:14:14.321Z,5080
2018-08-09T13:15:22.971Z,5016
2018-08-09T13:16:31.623Z,4952
2018-08-09T13:17:40.554Z,4900
2018-08-09T13:18:49.468Z,4780
2018-08-09T13:19:58.127Z,4520
2018-08-09T13:21:06.771Z,4308
2018-08-09T13:22:15.699Z,4128
2018-08-09T13:23:24.433Z,3928
2018-08-09T13:24:33.392Z,3720
2018-08-09T13:25:42.036Z,3500
2018-08-09T13:26:50.699Z,3360
2018-08-09T13:27:59.350Z,3280
2018-08-09T13:29:08.004Z,3216
2018-08-09T13:30:16.660Z,3188
2018-08-09T13:31:25.587Z,3204
2018-08-09T13:32:34.513Z,3200
2018-08-09T13:33:43.259Z,3168
2018-08-09T13:34:52.194Z,3064
2018-08-09T13:36:00.844Z,2824
2018-08-09T13:37:09.498Z,2600
2018-08-09T13:38:18.151Z,2472
2018-08-09T13:39:27.072Z,2368
2018-08-09T13:40:35.721Z,2248
2018-08-09T13:41:44.372Z,2112
2018-08-09T13:42:53.031Z,2092
2018-08-09T13:44:01.686Z,2448
2018-08-09T13:45:10.337Z,3056
2018-08-09T13:46:19.260Z,3748
2018-08-09T13:47:27.910Z,4356
2018-08-09T13:48:36.838Z,4816
2018-08-09T13:49:45.489Z,4952
2018-08-09T13:50:54.146Z,5036
2018-08-09T13:52:03.059Z,5136
2018-08-09T13:53:11.711Z,5056
2018-08-09T13:54:20.371Z,4792
2018-08-09T13:55:29.286Z,4420
2018-08-09T13:56:38.202Z,3904
2018-08-09T13:57:46.863Z,3384
2018-08-09T13:58:55.522Z,2844
2018-08-09T14:00:04.453Z,2348
2018-08-09T14:01:13.108Z,1972
2018-08-09T14:02:22.020Z,1724
2018-08-09T14:03:30.680Z,1552
2018-08-09T14:04:39.366Z,1408
2018-08-09T14:05:48.024Z,1296
2018-08-09T14:06:56.672Z,1160
2018-08-09T14:08:05.592Z,1012
2018-08-09T14:09:14.246Z,820
2018-08-09T14:10:22.902Z,640
2018-08-09T14:11:31.561Z,544
2018-08-09T14:12:40.209Z,488
2018-08-09T14:13:48.871Z,440
2018-08-09T14:14:57.788Z,400
2018-08-09T14:16:06.755Z,324
2018-08-09T14:17:15.373Z,228
2018-08-09T14:18:24.032Z,164
2018-08-09T14:19:32.951Z,160
2018-08-09T14:20:41.612Z,160
2018-08-09T14:21:50.530Z,184
2018-08-09T14:22:59.184Z,184
2018-08-09T14:24:08.109Z,176
2018-08-09T14:25:16.768Z,216
2018-08-09T14:26:25.424Z,228
2018-08-09T14:27:34.078Z,220
2018-08-09T14:28:42.731Z,248
2018-08-09T14:29:51.388Z,364
2018-08-09T14:31:00.038Z,516
2018-08-09T14:32:08.955Z,716
2018-08-09T14:33:17.874Z,908
2018-08-09T14:34:26.532Z,936
2018-08-09T14:35:35.445Z,880
2018-08-09T14:36:44.101Z,824
2018-08-09T14:37:53.411Z,808
2018-08-09T14:39:02.067Z,796
2018-08-09T14:40:10.715Z,772
2018-08-09T14:41:19.368Z,756
2018-08-09T14:42:28.040Z,784
2018-08-09T14:43:36.676Z,840
2018-08-09T14:44:45.327Z,896
2018-08-09T14:45:54.245Z,948
2018-08-09T14:47:02.896Z,956
2018-08-09T14:48:11.547Z,928
2018-08-09T14:49:20.207Z,912
2018-08-09T14:50:28.859Z,900
2018-08-09T14:51:37.510Z,896
2018-08-09T14:52:46.431Z,896
2018-08-09T14:53:55.085Z,888
2018-08-09T14:55:03.736Z,868
2018-08-09T14:56:12.386Z,884
2018-08-09T14:57:21.034Z,872
2018-08-09T14:58:29.693Z,864
2018-08-09T14:59:38.343Z,848
2018-08-09T15:00:47.261Z,856
2018-08-09T15:01:55.907Z,844
2018-08-09T15:03:04.558Z,848
2018-08-09T15:04:13.211Z,856
2018-08-09T15:05:21.861Z,868
2018-08-09T15:06:30.780Z,920
2018-08-09T15:07:39.688Z,956
2018-08-09T15:08:48.343Z,968
2018-08-09T15:09:56.997Z,956
2018-08-09T15:11:05.653Z,960
2018-08-09T15:12:14.295Z,980
2018-08-09T15:13:22.944Z,996
2018-08-09T15:14:31.595Z,1044
2018-08-09T15:15:40.289Z,1120
2018-08-09T15:16:48.899Z,1180
2018-08-09T15:17:57.553Z,1260
2018-08-09T15:19:06.208Z,1356
2018-08-09T15:20:15.126Z,1516
2018-08-09T15:21:24.041Z,1720
2018-08-09T15:22:33.315Z,1984
2018-08-09T15:23:42.274Z,2276
2018-08-09T15:24:50.920Z,2564
2018-08-09T15:25:59.578Z,2780
2018-08-09T15:27:08.233Z,2976
2018-08-09T15:28:17.153Z,3124
2018-08-09T15:29:25.793Z,3200
2018-08-09T15:30:34.457Z,3252
2018-08-09T15:31:43.404Z,3292
2018-08-09T15:32:52.058Z,3308
2018-08-09T15:34:00.963Z,3324
2018-08-09T15:35:09.887Z,3312
2018-08-09T15:36:18.534Z,3312
2018-08-09T15:37:27.184Z,3320
2018-08-09T15:38:35.826Z,3324
2018-08-09T15:39:44.479Z,3312
2018-08-09T15:40:53.133Z,3284
2018-08-09T15:42:01.785Z,3276
2018-08-09T15:43:10.437Z,3220